Terminal Aerodrome Forecast
Issued by NWS

Home | Current Version | Previous Version | Text Only | Print | Product List | Glossary On
Versions: 1 2 3 4 5 6 7 8 9 10 11 12 13 14 15 16 17
000
FTUS46 KSTO 242335
TAFSMF
TAF
KSMF 242335Z 2500/2524 14014KT P6SM -SHRA OVC030
      TEMPO 2502/2506 4SM -SHRA BR OVC015
     FM250600 17006KT P6SM OVC020
     FM252000 VRB04KT P6SM BKN025 BKN150=

USA.gov is the U.S. government's official web portal to all federal, state and local government web resources and services.